Time;durP1;ratioP1;P1;durP2;ratioP2;P2;SDS_P1;SDS_P2;PMS_P1;PMS_P2;Temp;Humidity;BMP_temperature;BMP_pressure;BME280_temperature;BME280_humidity;BME280_pressure;Samples;Min_cycle;Max_cycle;Signal;HPM_P1;HPM_P2
2022/03/14 00:01:17;;;;;;;3.90;3.25;;;18.20;93.40;;;;;;4230702;28;20218;-71
2022/03/14 00:03:21;;;;;;;4.57;3.17;;;18.20;93.30;;;;;;4230604;28;20226;-71
2022/03/14 00:05:31;;;;;;;3.45;2.90;;;18.30;93.40;;;;;;4230063;28;20271;-71
2022/03/14 00:07:35;;;;;;;3.42;3.10;;;18.20;93.40;;;;;;4230546;28;20563;-71
2022/03/14 00:09:37;;;;;;;3.47;2.85;;;18.20;93.40;;;;;;4230400;28;20278;-71
2022/03/14 00:11:40;;;;;;;3.50;2.85;;;18.20;93.40;;;;;;4230509;28;20563;-71
2022/03/14 00:13:43;;;;;;;4.40;3.35;;;18.20;93.80;;;;;;4226584;28;20214;-71
2022/03/14 00:15:47;;;;;;;3.92;3.35;;;18.20;93.40;;;;;;4230469;28;20213;-71
2022/03/14 00:17:50;;;;;;;4.00;3.17;;;18.20;93.50;;;;;;4217002;28;20218;-71
2022/03/14 00:19:54;;;;;;;3.90;3.20;;;18.20;93.80;;;;;;4224668;28;20260;-71
2022/03/14 00:21:57;;;;;;;3.67;3.25;;;18.20;93.50;;;;;;4213871;28;20222;-71
2022/03/14 00:23:59;;;;;;;3.40;3.10;;;18.20;93.70;;;;;;4218629;28;20213;-71
2022/03/14 00:26:04;;;;;;;3.50;2.88;;;18.20;93.50;;;;;;4229995;28;20563;-71
2022/03/14 00:28:07;;;;;;;4.20;3.25;;;18.20;93.50;;;;;;4230312;28;20222;-71
2022/03/14 00:30:12;;;;;;;3.30;2.97;;;18.20;93.50;;;;;;4230186;28;20242;-71
2022/03/14 00:32:15;;;;;;;3.20;2.85;;;18.10;93.50;;;;;;4230310;28;20217;-71
2022/03/14 00:34:17;;;;;;;3.30;2.97;;;18.20;93.50;;;;;;4230141;28;20218;-71
2022/03/14 00:36:20;;;;;;;3.72;3.22;;;18.20;93.50;;;;;;4229948;28;20605;-71
2022/03/14 00:38:23;;;;;;;5.45;3.50;;;18.20;93.50;;;;;;4230015;28;20237;-71
2022/03/14 00:40:26;;;;;;;4.28;3.15;;;18.20;93.50;;;;;;4229801;28;20214;-71
2022/03/14 00:42:28;;;;;;;3.78;3.00;;;18.20;93.50;;;;;;4229672;28;20268;-71
2022/03/14 00:44:31;;;;;;;3.13;2.78;;;18.20;93.50;;;;;;4230320;28;20286;-71
2022/03/14 00:46:36;;;;;;;3.00;2.67;;;18.20;93.50;;;;;;4222063;28;20272;-71
2022/03/14 00:48:39;;;;;;;4.40;3.17;;;18.10;93.50;;;;;;4229101;28;20270;-71
2022/03/14 00:50:44;;;;;;;3.70;2.97;;;18.20;93.50;;;;;;4227739;28;20245;-71
2022/03/14 00:52:47;;;;;;;4.35;3.33;;;18.20;93.50;;;;;;4221650;28;20629;-71
2022/03/14 00:54:49;;;;;;;3.30;3.00;;;18.20;93.60;;;;;;4216184;28;20218;-71
2022/03/14 00:56:51;;;;;;;3.67;3.08;;;18.20;93.60;;;;;;4229543;28;20246;-71
2022/03/14 00:58:54;;;;;;;3.42;2.90;;;18.10;93.60;;;;;;4229926;28;20630;-71
2022/03/14 01:00:57;;;;;;;3.20;2.90;;;18.20;93.50;;;;;;4229568;28;20210;-71
2022/03/14 01:02:59;;;;;;;3.90;3.50;;;18.10;93.50;;;;;;4215469;28;20271;-71
2022/03/14 01:05:03;;;;;;;2.85;2.58;;;18.10;93.60;;;;;;4220380;28;20214;-71
2022/03/14 01:07:06;;;;;;;3.45;2.75;;;18.10;93.60;;;;;;4229736;28;20222;-71
2022/03/14 01:09:11;;;;;;;3.85;3.05;;;18.10;93.60;;;;;;4215217;28;20263;-71
2022/03/14 01:11:13;;;;;;;3.28;2.75;;;18.10;93.60;;;;;;4227837;28;20233;-71
2022/03/14 01:13:16;;;;;;;3.75;2.80;;;18.10;93.90;;;;;;4229199;28;20270;-71
2022/03/14 01:15:19;;;;;;;3.90;2.92;;;18.10;93.60;;;;;;4229544;28;20286;-71
2022/03/14 01:17:21;;;;;;;3.75;2.80;;;18.10;93.60;;;;;;4228754;28;20243;-71
2022/03/14 01:19:23;;;;;;;2.85;2.40;;;18.10;93.60;;;;;;4231108;28;20225;-71
2022/03/14 01:21:30;;;;;;;3.80;3.22;;;18.10;93.60;;;;;;4221438;28;20267;-71
2022/03/14 01:23:32;;;;;;;4.47;2.78;;;18.10;93.60;;;;;;4233065;28;20213;-71
2022/03/14 01:25:35;;;;;;;3.72;2.85;;;18.10;93.60;;;;;;4232588;28;20226;-71
2022/03/14 01:27:37;;;;;;;3.63;3.10;;;18.10;93.70;;;;;;4218430;28;20213;-71
2022/03/14 01:29:40;;;;;;;2.78;2.50;;;18.10;93.70;;;;;;4232317;28;20294;-71
2022/03/14 01:31:42;;;;;;;2.90;2.53;;;18.00;93.60;;;;;;4232398;28;20217;-71
2022/03/14 01:33:44;;;;;;;3.30;2.83;;;18.10;93.70;;;;;;4232698;28;20214;-71
2022/03/14 01:35:47;;;;;;;3.72;2.70;;;18.10;93.70;;;;;;4219105;28;20545;-71
2022/03/14 01:37:51;;;;;;;3.10;2.80;;;18.00;93.60;;;;;;4232371;28;20233;-71
2022/03/14 01:39:54;;;;;;;3.05;2.78;;;18.10;93.70;;;;;;4232274;28;20262;-70
2022/03/14 01:41:57;;;;;;;3.40;2.72;;;18.10;93.70;;;;;;4230002;28;20259;-71
2022/03/14 01:44:01;;;;;;;3.70;2.80;;;18.10;93.70;;;;;;4232314;28;20744;-71
2022/03/14 01:46:04;;;;;;;4.22;2.70;;;18.00;93.70;;;;;;4232567;28;20730;-71
2022/03/14 01:48:06;;;;;;;3.90;2.70;;;18.00;93.70;;;;;;4232239;28;20225;-71
2022/03/14 01:50:10;;;;;;;2.80;2.47;;;18.10;93.80;;;;;;4232492;28;20286;-71
2022/03/14 01:52:13;;;;;;;3.00;2.45;;;18.00;93.80;;;;;;4219465;28;20214;-71
2022/03/14 01:54:16;;;;;;;2.80;2.60;;;18.00;93.80;;;;;;4232103;28;20222;-71
2022/03/14 01:56:19;;;;;;;2.60;2.33;;;18.00;93.80;;;;;;4232313;28;20217;-71
2022/03/14 01:58:22;;;;;;;3.67;2.97;;;18.00;93.80;;;;;;4225615;28;20626;-71
2022/03/14 02:00:25;;;;;;;2.85;2.53;;;18.00;93.80;;;;;;4231996;28;20267;-71
2022/03/14 02:02:28;;;;;;;3.13;2.50;;;18.00;93.80;;;;;;4231870;28;20217;-71
2022/03/14 02:04:30;;;;;;;2.80;2.50;;;18.00;93.90;;;;;;4232671;28;20225;-71
2022/03/14 02:06:35;;;;;;;3.85;2.65;;;18.00;93.80;;;;;;4232194;28;20243;-71
2022/03/14 02:08:38;;;;;;;3.70;2.53;;;18.00;93.80;;;;;;4231923;28;20604;-71
2022/03/14 02:10:41;;;;;;;3.40;2.83;;;18.00;93.90;;;;;;4231145;28;20287;-71
2022/03/14 02:12:44;;;;;;;2.88;2.58;;;18.00;93.90;;;;;;4220496;28;20221;-71
2022/03/14 02:14:46;;;;;;;3.13;2.40;;;18.00;93.90;;;;;;4232479;28;20727;-71
2022/03/14 02:16:49;;;;;;;2.83;2.55;;;18.00;93.90;;;;;;4232452;28;20615;-71
2022/03/14 02:18:51;;;;;;;2.55;2.35;;;18.00;93.90;;;;;;4232546;28;20263;-71
2022/03/14 02:20:56;;;;;;;2.70;2.50;;;18.00;94.30;;;;;;4218037;28;20251;-71
2022/03/14 02:22:58;;;;;;;3.22;2.63;;;18.00;93.80;;;;;;4232245;28;20222;-71
2022/03/14 02:25:01;;;;;;;3.03;2.70;;;18.00;93.90;;;;;;4232499;28;20220;-71
2022/03/14 02:27:04;;;;;;;3.13;2.50;;;18.00;93.90;;;;;;4228786;28;20218;-71
2022/03/14 02:29:07;;;;;;;2.70;2.22;;;18.00;94.00;;;;;;4230707;28;20222;-71
2022/03/14 02:31:09;;;;;;;2.40;2.20;;;18.00;93.90;;;;;;4231484;28;20286;-71
2022/03/14 02:33:11;;;;;;;3.35;2.85;;;18.00;93.90;;;;;;4232466;28;20657;-71
2022/03/14 02:35:14;;;;;;;3.35;2.53;;;18.00;94.00;;;;;;4231547;28;20270;-71
2022/03/14 02:37:18;;;;;;;4.28;2.70;;;18.00;93.90;;;;;;4230504;28;20238;-71
2022/03/14 02:39:20;;;;;;;2.67;2.13;;;18.00;94.00;;;;;;4231981;28;20263;-71
2022/03/14 02:41:23;;;;;;;3.08;2.40;;;18.00;94.00;;;;;;4230087;28;20271;-71
2022/03/14 02:43:26;;;;;;;2.95;2.42;;;18.00;94.40;;;;;;4227666;28;20270;-71
2022/03/14 02:45:30;;;;;;;3.17;2.55;;;17.90;93.90;;;;;;4231898;28;20979;-71
2022/03/14 02:47:32;;;;;;;2.90;2.40;;;18.00;94.00;;;;;;4231906;28;20217;-71
2022/03/14 02:49:35;;;;;;;3.03;2.55;;;18.00;94.10;;;;;;4231663;28;20567;-71
2022/03/14 02:51:39;;;;;;;2.80;2.20;;;18.00;94.10;;;;;;4231387;28;20230;-71
2022/03/14 02:53:42;;;;;;;3.05;2.58;;;18.00;94.10;;;;;;4217784;28;20213;-71
2022/03/14 02:55:45;;;;;;;3.95;2.83;;;18.00;94.10;;;;;;4231616;28;20263;-70
2022/03/14 02:57:47;;;;;;;2.95;2.40;;;18.00;94.40;;;;;;4231678;28;20225;-71
2022/03/14 02:59:50;;;;;;;2.65;2.35;;;18.00;94.40;;;;;;4231821;28;20271;-71
2022/03/14 03:01:52;;;;;;;2.20;2.00;;;17.90;94.10;;;;;;4219071;28;20218;-71
2022/03/14 03:03:54;;;;;;;2.90;2.13;;;17.90;94.00;;;;;;4231137;28;20214;-71
2022/03/14 03:05:56;;;;;;;3.15;2.47;;;17.90;94.10;;;;;;4230987;28;20217;-71
2022/03/14 03:08:01;;;;;;;2.45;2.20;;;17.90;94.10;;;;;;4223037;28;20699;-71
2022/03/14 03:10:07;;;;;;;3.63;2.50;;;17.90;94.10;;;;;;4231404;28;20218;-71
2022/03/14 03:12:12;;;;;;;3.28;2.55;;;17.90;94.00;;;;;;4231202;28;20294;-71
2022/03/14 03:14:14;;;;;;;2.70;2.40;;;17.90;94.10;;;;;;4231618;28;20267;-71
2022/03/14 03:16:16;;;;;;;3.65;2.40;;;17.90;94.40;;;;;;4231197;28;21048;-71
2022/03/14 03:18:19;;;;;;;3.05;2.38;;;17.90;94.10;;;;;;4231184;28;20225;-71
2022/03/14 03:20:22;;;;;;;3.22;2.28;;;17.90;94.10;;;;;;4231394;28;20210;-71
2022/03/14 03:22:26;;;;;;;2.45;2.17;;;17.90;94.10;;;;;;4231186;28;20218;-71
2022/03/14 03:24:29;;;;;;;2.75;2.10;;;17.90;94.10;;;;;;4230912;28;20214;-71
2022/03/14 03:26:32;;;;;;;3.38;2.40;;;17.90;94.10;;;;;;4228297;28;20262;-71
2022/03/14 03:28:36;;;;;;;3.40;2.30;;;17.90;94.20;;;;;;4230667;28;20270;-71
2022/03/14 03:30:38;;;;;;;2.50;2.30;;;17.90;94.10;;;;;;4231357;28;20614;-71
2022/03/14 03:32:41;;;;;;;3.63;2.42;;;17.90;94.10;;;;;;4231150;28;20237;-71
2022/03/14 03:34:43;;;;;;;2.70;2.15;;;17.90;94.10;;;;;;4230447;28;20727;-71
2022/03/14 03:36:45;;;;;;;2.67;2.35;;;17.90;94.10;;;;;;4230928;28;20222;-71
2022/03/14 03:38:47;;;;;;;2.72;2.00;;;17.90;94.10;;;;;;4230503;28;20263;-70
2022/03/14 03:40:50;;;;;;;3.78;2.38;;;17.90;94.20;;;;;;4230292;28;20217;-70
2022/03/14 03:42:54;;;;;;;2.58;2.25;;;17.90;94.20;;;;;;4230393;28;21097;-71
2022/03/14 03:44:56;;;;;;;3.05;2.25;;;17.90;94.20;;;;;;4208139;28;20731;-71
2022/03/14 03:46:58;;;;;;;2.97;2.38;;;17.90;94.20;;;;;;4218276;28;20214;-72
2022/03/14 03:49:01;;;;;;;2.97;2.42;;;17.90;94.20;;;;;;4230364;28;20624;-72
2022/03/14 03:51:03;;;;;;;2.95;2.10;;;17.90;94.20;;;;;;4230038;28;20205;-72
2022/03/14 03:53:05;;;;;;;3.25;2.53;;;17.90;94.20;;;;;;4230156;28;20278;-72
2022/03/14 03:55:09;;;;;;;2.22;2.03;;;17.90;94.20;;;;;;4230272;28;20225;-72
2022/03/14 03:57:12;;;;;;;3.13;2.03;;;17.90;94.30;;;;;;4230362;28;20260;-72
2022/03/14 03:59:16;;;;;;;3.55;2.20;;;17.80;94.30;;;;;;4230021;28;20217;-72
2022/03/14 04:01:22;;;;;;;2.55;2.00;;;17.90;94.30;;;;;;4230380;28;20262;-72
2022/03/14 04:03:25;;;;;;;2.58;1.92;;;17.90;94.20;;;;;;4230259;28;20234;-72
2022/03/14 04:05:30;;;;;;;2.92;1.90;;;17.80;94.20;;;;;;4224508;28;20222;-72
2022/03/14 04:07:32;;;;;;;3.22;2.38;;;17.90;94.20;;;;;;4212212;28;20215;-72
2022/03/14 04:09:35;;;;;;;2.47;1.98;;;17.80;94.20;;;;;;4227209;28;20622;-72
2022/03/14 04:11:37;;;;;;;3.25;2.28;;;17.80;94.30;;;;;;4229922;28;20701;-72
2022/03/14 04:13:39;;;;;;;3.20;2.40;;;17.90;94.30;;;;;;4218048;28;20218;-72
2022/03/14 04:15:51;;;;;;;2.38;2.17;;;17.80;94.30;;;;;;4213095;28;20260;-73
2022/03/14 04:17:56;;;;;;;2.33;1.90;;;17.80;94.30;;;;;;4216858;28;20267;-72
2022/03/14 04:20:00;;;;;;;2.72;1.90;;;17.80;94.30;;;;;;4228479;28;20322;-72
2022/03/14 04:22:03;;;;;;;3.22;2.10;;;17.80;94.30;;;;;;4229674;28;20255;-72
2022/03/14 04:24:06;;;;;;;2.08;1.88;;;17.80;94.30;;;;;;4229622;28;20274;-72
2022/03/14 04:26:09;;;;;;;2.75;1.98;;;17.80;94.30;;;;;;4202736;28;20207;-72
2022/03/14 04:28:12;;;;;;;2.83;2.13;;;17.80;94.30;;;;;;4229601;28;20263;-72
2022/03/14 04:30:16;;;;;;;2.50;2.05;;;17.90;94.30;;;;;;4229118;28;20266;-73
2022/03/14 04:32:20;;;;;;;3.15;2.20;;;17.80;94.30;;;;;;4229243;28;20389;-73
2022/03/14 04:34:22;;;;;;;3.70;2.50;;;17.80;94.30;;;;;;4229891;28;20262;-72
2022/03/14 04:36:25;;;;;;;2.15;1.95;;;17.80;94.30;;;;;;4230059;28;20222;-72
2022/03/14 04:38:28;;;;;;;3.13;2.10;;;17.80;94.30;;;;;;4204613;28;20300;-72
2022/03/14 04:40:32;;;;;;;1.98;1.75;;;17.80;94.30;;;;;;4198686;28;20310;-72
2022/03/14 04:42:34;;;;;;;2.42;1.92;;;17.80;94.60;;;;;;4200040;28;20218;-72
2022/03/14 04:44:38;;;;;;;2.58;2.03;;;17.80;94.30;;;;;;4211776;28;20267;-72
2022/03/14 04:46:40;;;;;;;2.80;2.00;;;17.80;94.70;;;;;;4212988;28;20218;-72
2022/03/14 04:48:44;;;;;;;2.40;1.88;;;17.80;94.30;;;;;;4199880;28;20272;-72
2022/03/14 04:50:46;;;;;;;2.28;1.83;;;17.80;94.70;;;;;;4211517;28;20997;-72
2022/03/14 04:52:49;;;;;;;2.83;1.77;;;17.80;94.30;;;;;;4212450;28;20311;-72
2022/03/14 04:54:51;;;;;;;2.92;2.17;;;17.80;94.40;;;;;;4212630;28;20218;-73
2022/03/14 04:56:54;;;;;;;2.85;2.08;;;17.80;94.40;;;;;;4198135;28;20257;-72
2022/03/14 04:58:57;;;;;;;2.47;2.15;;;17.80;94.30;;;;;;4196358;28;20223;-72
2022/03/14 05:00:59;;;;;;;2.65;1.90;;;17.80;94.40;;;;;;4203351;28;20611;-73
2022/03/14 05:03:02;;;;;;;3.35;2.10;;;17.80;94.40;;;;;;4196591;28;20267;-72
2022/03/14 05:05:10;;;;;;;2.95;2.15;;;17.80;94.40;;;;;;4200531;28;20226;-72
2022/03/14 05:07:12;;;;;;;2.50;1.92;;;17.80;94.40;;;;;;4202853;28;20226;-72
2022/03/14 05:09:15;;;;;;;4.00;2.20;;;17.80;94.50;;;;;;4212958;28;20594;-72
2022/03/14 05:11:17;;;;;;;2.80;2.00;;;17.80;94.50;;;;;;4212526;28;20748;-72
2022/03/14 05:13:20;;;;;;;2.40;1.90;;;17.80;94.50;;;;;;4196222;28;20243;-72
2022/03/14 05:15:22;;;;;;;2.75;2.10;;;17.80;94.50;;;;;;4196237;28;20249;-72
2022/03/14 05:17:24;;;;;;;3.85;2.30;;;17.80;94.50;;;;;;4201213;28;20223;-72
2022/03/14 05:19:27;;;;;;;2.65;1.80;;;17.80;94.50;;;;;;4195918;28;20219;-73
2022/03/14 05:21:33;;;;;;;4.30;2.22;;;17.80;94.50;;;;;;4208911;28;20214;-73
2022/03/14 05:23:35;;;;;;;2.60;2.03;;;17.70;94.50;;;;;;4197948;28;20567;-72
2022/03/14 05:25:38;;;;;;;4.20;2.20;;;17.80;94.50;;;;;;4203207;28;20235;-72
2022/03/14 05:27:40;;;;;;;2.92;1.67;;;17.80;94.60;;;;;;4208899;28;20729;-72
2022/03/14 05:29:42;;;;;;;1.88;1.63;;;17.80;94.60;;;;;;4209309;28;20219;-72
2022/03/14 05:31:45;;;;;;;2.75;2.03;;;17.70;94.50;;;;;;4200813;28;20664;-73
2022/03/14 05:33:47;;;;;;;3.40;1.80;;;17.80;94.50;;;;;;4196641;28;20724;-72
2022/03/14 05:35:50;;;;;;;2.55;2.13;;;17.80;94.50;;;;;;4209515;28;20210;-72
2022/03/14 05:37:54;;;;;;;2.45;1.90;;;17.70;94.40;;;;;;4208756;28;20656;-72
2022/03/14 05:39:57;;;;;;;2.88;1.75;;;17.70;94.50;;;;;;4205352;28;20646;-73
2022/03/14 05:42:00;;;;;;;3.33;2.28;;;17.80;94.60;;;;;;4204628;28;20658;-72
2022/03/14 05:44:03;;;;;;;3.22;2.15;;;17.80;94.50;;;;;;4212339;28;20248;-72
2022/03/14 05:46:06;;;;;;;2.38;1.77;;;17.70;94.40;;;;;;4212566;28;20226;-72
2022/03/14 05:48:08;;;;;;;3.28;1.80;;;17.80;94.50;;;;;;4212822;28;20226;-72
2022/03/14 05:50:11;;;;;;;2.53;1.77;;;17.70;94.50;;;;;;4212121;28;20712;-72
2022/03/14 05:52:14;;;;;;;2.40;1.85;;;17.70;94.50;;;;;;4226874;28;20335;-72
2022/03/14 05:54:18;;;;;;;4.18;1.90;;;17.70;94.60;;;;;;4228419;28;20263;-73
2022/03/14 05:56:20;;;;;;;3.15;1.80;;;17.60;94.60;;;;;;4224732;28;20707;-72
2022/03/14 05:58:22;;;;;;;2.80;2.00;;;17.60;94.80;;;;;;4229092;28;20288;-72
2022/03/14 06:00:25;;;;;;;3.25;2.00;;;17.50;94.90;;;;;;4228889;28;20217;-72
2022/03/14 06:02:27;;;;;;;2.50;1.90;;;17.50;94.90;;;;;;4229339;28;20218;-72
2022/03/14 06:04:30;;;;;;;2.25;1.70;;;17.60;94.90;;;;;;4229961;28;20273;-72
2022/03/14 06:06:34;;;;;;;2.88;1.80;;;17.70;94.70;;;;;;4231797;28;20279;-72
2022/03/14 06:08:36;;;;;;;3.42;1.80;;;17.80;94.80;;;;;;4232294;28;20213;-72
2022/03/14 06:10:40;;;;;;;1.85;1.70;;;17.70;94.90;;;;;;4218787;28;20230;-72
2022/03/14 06:12:43;;;;;;;4.13;2.20;;;17.70;94.80;;;;;;4232024;28;20689;-73
2022/03/14 06:14:45;;;;;;;2.97;1.80;;;17.70;95.00;;;;;;4231847;28;20213;-72
2022/03/14 06:16:48;;;;;;;3.03;1.67;;;17.80;95.10;;;;;;4231816;28;20229;-72
2022/03/14 06:18:50;;;;;;;2.83;1.80;;;17.80;95.10;;;;;;4232274;28;20267;-72
2022/03/14 06:20:53;;;;;;;3.17;1.80;;;17.80;95.10;;;;;;4221527;28;20267;-72
2022/03/14 06:22:55;;;;;;;2.88;1.80;;;17.80;95.20;;;;;;4221394;28;20252;-73
2022/03/14 06:24:58;;;;;;;2.60;1.95;;;17.80;95.20;;;;;;4228788;28;20271;-72
2022/03/14 06:27:02;;;;;;;3.08;1.88;;;17.90;95.30;;;;;;4220739;28;20960;-72
2022/03/14 06:29:04;;;;;;;2.90;2.00;;;17.90;95.30;;;;;;4232121;28;20214;-72
2022/03/14 06:31:11;;;;;;;1.85;1.55;;;17.90;95.30;;;;;;4231165;28;20221;-72
2022/03/14 06:33:13;;;;;;;2.95;2.00;;;17.90;95.30;;;;;;4231496;28;20238;-72
2022/03/14 06:35:17;;;;;;;2.75;1.60;;;17.90;95.30;;;;;;4231475;28;20218;-72
2022/03/14 06:37:19;;;;;;;2.53;1.80;;;18.00;95.50;;;;;;4231261;28;20282;-72
2022/03/14 06:39:21;;;;;;;2.65;1.98;;;18.00;95.40;;;;;;4231272;28;20703;-72
2022/03/14 06:41:24;;;;;;;4.70;1.90;;;18.00;95.40;;;;;;4230617;28;20719;-72
2022/03/14 06:43:28;;;;;;;2.20;1.63;;;18.00;95.50;;;;;;4231140;28;20205;-72
2022/03/14 06:45:32;;;;;;;2.53;1.77;;;18.00;95.40;;;;;;4220458;28;20218;-73
2022/03/14 06:47:34;;;;;;;2.10;1.63;;;18.10;95.50;;;;;;4226035;28;20263;-72
2022/03/14 06:49:37;;;;;;;3.63;1.80;;;18.00;95.40;;;;;;4230519;28;20579;-72
2022/03/14 06:51:42;;;;;;;2.75;1.80;;;18.10;95.40;;;;;;4230255;28;20603;-72
2022/03/14 06:53:44;;;;;;;2.22;1.55;;;18.10;95.50;;;;;;4223269;28;20237;-73
2022/03/14 06:55:47;;;;;;;2.28;1.58;;;18.10;95.40;;;;;;4231229;28;20739;-72
2022/03/14 06:57:50;;;;;;;2.22;1.45;;;18.10;95.40;;;;;;4222493;28;20663;-72
2022/03/14 06:59:54;;;;;;;2.15;1.63;;;18.10;95.40;;;;;;4231540;28;20222;-72
2022/03/14 07:01:56;;;;;;;2.40;1.80;;;18.10;95.40;;;;;;4231094;28;20222;-72
2022/03/14 07:03:58;;;;;;;2.88;1.40;;;18.10;95.40;;;;;;4222851;28;20268;-72
2022/03/14 07:06:02;;;;;;;2.05;1.55;;;18.10;95.40;;;;;;4230605;28;20225;-72
2022/03/14 07:08:04;;;;;;;2.08;1.58;;;18.20;95.50;;;;;;4230858;28;20625;-72
2022/03/14 07:10:08;;;;;;;2.72;1.70;;;18.20;95.70;;;;;;4231411;28;20658;-72
2022/03/14 07:12:12;;;;;;;2.15;1.40;;;18.20;95.40;;;;;;4231095;28;20279;-72
2022/03/14 07:14:14;;;;;;;2.92;1.70;;;18.20;95.40;;;;;;4221056;28;20241;-72
2022/03/14 07:16:18;;;;;;;2.58;1.42;;;18.20;95.50;;;;;;4230758;28;20221;-72
2022/03/14 07:18:20;;;;;;;1.98;1.70;;;18.30;95.50;;;;;;4230574;28;20221;-72
2022/03/14 07:20:24;;;;;;;2.08;1.70;;;18.30;95.40;;;;;;4218629;28;20219;-72
2022/03/14 07:22:29;;;;;;;5.63;2.13;;;18.20;95.50;;;;;;4230760;28;20217;-72
2022/03/14 07:24:31;;;;;;;3.67;2.20;;;18.20;95.20;;;;;;4230786;28;20210;-72
2022/03/14 07:26:34;;;;;;;7.72;2.58;;;18.20;95.40;;;;;;4230684;28;20214;-72
2022/03/14 07:28:36;;;;;;;2.58;1.88;;;18.10;95.10;;;;;;4230881;28;20217;-72
2022/03/14 07:30:39;;;;;;;8.13;2.45;;;18.20;95.40;;;;;;4230818;28;20225;-71
2022/03/14 07:32:43;;;;;;;5.45;2.40;;;18.20;95.10;;;;;;4230185;28;20279;-72
2022/03/14 07:34:45;;;;;;;7.50;2.55;;;18.20;95.20;;;;;;4230398;28;20704;-71
2022/03/14 07:36:47;;;;;;;28.52;4.50;;;18.20;95.60;;;;;;4230041;28;20233;-72
2022/03/14 07:38:50;;;;;;;8.27;2.63;;;18.20;98.60;;;;;;4221200;28;20631;-72
2022/03/14 07:40:53;;;;;;;6.32;2.38;;;18.30;98.70;;;;;;4197113;28;21117;-71
2022/03/14 07:42:58;;;;;;;7.22;2.60;;;18.30;99.90;;;;;;4213245;28;20222;-71
2022/03/14 07:45:00;;;;;;;8.68;3.10;;;18.30;99.90;;;;;;4225044;28;20214;-71
2022/03/14 07:47:06;;;;;;;9.82;2.72;;;18.30;99.90;;;;;;4217573;28;20641;-71
2022/03/14 07:49:10;;;;;;;6.68;3.05;;;18.30;99.90;;;;;;4214669;28;20264;-72
2022/03/14 07:51:12;;;;;;;16.67;3.88;;;18.30;99.90;;;;;;4223679;28;20218;-71
2022/03/14 07:53:14;;;;;;;14.23;3.08;;;18.30;99.90;;;;;;4225413;28;20214;-71
2022/03/14 07:55:17;;;;;;;19.33;3.85;;;18.30;99.90;;;;;;4215739;28;20263;-71
2022/03/14 07:57:20;;;;;;;13.13;3.50;;;18.30;99.90;;;;;;4220953;28;20291;-71
2022/03/14 07:59:22;;;;;;;11.88;2.75;;;18.60;99.90;;;;;;4224377;27;20205;-71
2022/03/14 08:01:24;;;;;;;8.18;3.05;;;18.80;99.90;;;;;;4219458;28;20222;-71
2022/03/14 08:03:27;;;;;;;10.85;2.90;;;19.10;99.90;;;;;;4221462;28;20267;-71
2022/03/14 08:05:30;;;;;;;9.05;3.05;;;19.20;99.90;;;;;;4220610;28;20202;-71
2022/03/14 08:07:34;;;;;;;10.13;2.70;;;19.50;99.90;;;;;;4222683;27;20218;-70
2022/03/14 08:09:36;;;;;;;9.90;2.40;;;19.70;99.90;;;;;;4209603;28;20222;-70
2022/03/14 08:11:40;;;;;;;11.82;2.78;;;19.80;99.90;;;;;;4223488;28;20214;-70
2022/03/14 08:13:42;;;;;;;6.63;2.38;;;19.80;99.90;;;;;;4221506;27;20230;-70
2022/03/14 08:15:44;;;;;;;9.38;2.83;;;19.80;99.90;;;;;;4221948;28;20222;-71
2022/03/14 08:17:47;;;;;;;6.38;2.00;;;19.90;99.90;;;;;;4219299;27;20214;-71
2022/03/14 08:19:49;;;;;;;7.65;2.85;;;20.00;99.90;;;;;;4218152;28;20291;-70
2022/03/14 08:21:54;;;;;;;12.80;2.90;;;19.90;99.90;;;;;;4220785;28;20906;-70
2022/03/14 08:23:56;;;;;;;10.52;2.88;;;20.20;99.90;;;;;;4221583;28;20317;-69
2022/03/14 08:26:00;;;;;;;7.45;2.63;;;20.40;99.20;;;;;;4215346;27;20217;-70
2022/03/14 08:28:06;;;;;;;8.18;2.42;;;20.40;99.20;;;;;;4218854;28;20298;-69
2022/03/14 08:30:10;;;;;;;7.35;2.58;;;20.40;98.90;;;;;;4208090;28;20716;-70
2022/03/14 08:32:12;;;;;;;9.88;2.33;;;20.40;98.90;;;;;;4214143;27;20215;-70
2022/03/14 08:34:15;;;;;;;5.15;2.38;;;20.50;98.70;;;;;;4214545;28;20689;-70
2022/03/14 08:36:20;;;;;;;8.10;2.47;;;20.60;98.40;;;;;;4208251;28;20206;-69
2022/03/14 08:38:25;;;;;;;7.35;2.20;;;20.60;98.10;;;;;;4203645;28;20248;-72
2022/03/14 08:40:29;;;;;;;5.15;1.90;;;20.60;98.40;;;;;;4203709;28;20211;-73
2022/03/14 08:42:31;;;;;;;7.00;2.58;;;20.60;98.80;;;;;;4204417;28;20219;-72
2022/03/14 08:44:33;;;;;;;9.45;2.33;;;20.70;98.40;;;;;;4205456;28;20677;-71
2022/03/14 08:46:38;;;;;;;9.80;2.60;;;20.70;98.00;;;;;;4206449;28;20276;-71
2022/03/14 08:48:43;;;;;;;6.88;2.20;;;20.60;98.40;;;;;;4206017;28;20647;-72
2022/03/14 08:50:45;;;;;;;8.32;2.17;;;20.70;98.20;;;;;;4206296;28;20219;-72
2022/03/14 08:52:48;;;;;;;10.07;2.50;;;20.80;97.90;;;;;;4202853;28;20214;-71
2022/03/14 08:54:52;;;;;;;6.47;2.08;;;20.70;98.70;;;;;;4202917;28;20231;-71
2022/03/14 08:56:54;;;;;;;5.50;2.10;;;20.90;98.40;;;;;;4205426;28;20222;-72
2022/03/14 08:58:56;;;;;;;10.07;2.63;;;20.90;98.30;;;;;;4199366;28;21005;-71
2022/03/14 09:00:59;;;;;;;8.65;2.35;;;21.00;98.00;;;;;;4206328;28;20214;-71
2022/03/14 09:03:02;;;;;;;8.77;2.60;;;21.00;98.30;;;;;;4204459;28;20296;-71
2022/03/14 09:05:05;;;;;;;6.13;1.83;;;21.00;98.10;;;;;;4203576;28;22323;-71
2022/03/14 09:07:07;;;;;;;10.98;2.40;;;20.90;98.20;;;;;;4197650;28;20268;-71
2022/03/14 09:09:10;;;;;;;7.45;2.50;;;21.10;98.20;;;;;;4196194;28;21556;-70
2022/03/14 09:11:15;;;;;;;9.63;2.33;;;21.20;98.20;;;;;;4204459;28;20222;-72
2022/03/14 09:13:17;;;;;;;10.40;2.05;;;21.20;97.80;;;;;;4206890;28;20264;-73
2022/03/14 09:15:31;;;;;;;16.92;2.35;;;21.30;97.70;;;;;;4205968;28;20238;-74
2022/03/14 09:17:35;;;;;;;8.52;2.25;;;21.20;97.50;;;;;;4204898;28;20206;-71
2022/03/14 09:19:38;;;;;;;5.50;1.95;;;21.40;97.70;;;;;;4206076;28;20630;-72
2022/03/14 09:21:40;;;;;;;11.50;2.53;;;21.40;97.60;;;;;;4201179;28;20280;-72
2022/03/14 09:23:43;;;;;;;7.60;2.30;;;21.50;97.00;;;;;;4207714;28;20218;-72
2022/03/14 09:25:45;;;;;;;11.40;2.72;;;21.50;96.90;;;;;;4210443;28;20244;-72
2022/03/14 09:27:50;;;;;;;5.97;2.10;;;21.60;96.50;;;;;;4209379;28;20268;-72
2022/03/14 09:29:52;;;;;;;7.82;2.22;;;21.60;96.60;;;;;;4209908;28;20219;-72
2022/03/14 09:31:56;;;;;;;6.63;2.03;;;21.60;96.40;;;;;;4210737;28;20214;-72
2022/03/14 09:33:58;;;;;;;7.07;2.20;;;21.60;96.90;;;;;;4210535;28;20215;-72
2022/03/14 09:36:02;;;;;;;7.38;2.00;;;21.50;96.50;;;;;;4209426;28;20244;-72
2022/03/14 09:38:04;;;;;;;9.38;2.58;;;21.50;96.70;;;;;;4209512;28;20304;-74
2022/03/14 09:40:08;;;;;;;8.05;2.47;;;21.50;96.90;;;;;;4212469;28;20601;-73
2022/03/14 09:42:13;;;;;;;4.97;2.15;;;21.60;96.70;;;;;;4213268;28;20214;-73
2022/03/14 09:44:21;;;;;;;8.30;2.72;;;21.70;96.50;;;;;;4211077;28;20214;-72
2022/03/14 09:46:24;;;;;;;4.35;2.08;;;21.60;96.50;;;;;;4210516;28;20303;-72
2022/03/14 09:48:27;;;;;;;6.70;1.80;;;21.70;96.50;;;;;;4212296;28;20222;-72
2022/03/14 09:50:34;;;;;;;9.27;2.13;;;21.60;96.60;;;;;;4212684;28;20221;-72
2022/03/14 09:52:37;;;;;;;7.20;2.20;;;21.60;96.70;;;;;;4207634;28;20210;-72
2022/03/14 09:54:40;;;;;;;8.00;2.35;;;21.60;96.70;;;;;;4205512;28;20275;-72
2022/03/14 09:56:43;;;;;;;5.55;1.98;;;21.60;96.60;;;;;;4207550;28;21664;-71
2022/03/14 09:58:45;;;;;;;4.65;2.00;;;21.70;96.40;;;;;;4206969;28;20268;-71
2022/03/14 10:00:50;;;;;;;6.40;2.42;;;21.80;96.20;;;;;;4206508;28;20219;-71
2022/03/14 10:02:52;;;;;;;4.30;2.22;;;21.80;96.20;;;;;;4203981;28;20231;-71
2022/03/14 10:04:55;;;;;;;6.30;1.80;;;21.80;96.20;;;;;;4204988;28;20215;-72
2022/03/14 10:06:57;;;;;;;6.55;2.30;;;21.70;96.20;;;;;;4203534;28;20287;-71
2022/03/14 10:08:59;;;;;;;7.72;2.40;;;21.60;96.50;;;;;;4207945;28;20222;-71
2022/03/14 10:11:02;;;;;;;6.82;2.58;;;21.60;96.20;;;;;;4207175;28;20222;-71
2022/03/14 10:13:05;;;;;;;6.82;2.78;;;21.70;96.20;;;;;;4207854;28;20223;-72
2022/03/14 10:15:09;;;;;;;6.35;1.90;;;21.80;96.10;;;;;;4206829;28;20231;-71
2022/03/14 10:17:13;;;;;;;8.65;2.25;;;21.90;96.20;;;;;;4205998;28;20256;-71
2022/03/14 10:19:20;;;;;;;6.90;2.05;;;21.90;96.00;;;;;;4205853;28;20226;-72
2022/03/14 10:21:33;;;;;;;6.13;2.20;;;21.80;96.10;;;;;;4206690;28;20264;-71
2022/03/14 10:23:40;;;;;;;8.40;2.13;;;21.80;96.10;;;;;;4208626;28;20351;-72
2022/03/14 10:25:43;;;;;;;4.30;1.90;;;21.80;96.20;;;;;;4200443;28;20207;-73
2022/03/14 10:27:47;;;;;;;7.85;2.50;;;21.80;96.00;;;;;;4196605;28;20260;-72
2022/03/14 10:29:50;;;;;;;4.07;2.00;;;21.90;96.10;;;;;;4203050;28;20215;-72
2022/03/14 10:31:56;;;;;;;5.55;2.00;;;21.90;95.80;;;;;;4206000;28;20214;-73
2022/03/14 10:34:04;;;;;;;5.50;2.00;;;22.00;96.00;;;;;;4195313;28;20218;-73
2022/03/14 10:36:07;;;;;;;4.25;2.05;;;21.90;95.90;;;;;;4202529;28;20246;-73
2022/03/14 10:38:11;;;;;;;5.07;1.95;;;21.90;95.80;;;;;;4212566;28;20238;-74
2022/03/14 10:40:14;;;;;;;5.57;1.65;;;21.80;95.90;;;;;;4217492;28;20260;-72